Time;durP1;ratioP1;P1;durP2;ratioP2;P2;SDS_P1;SDS_P2;PMS_P1;PMS_P2;Temp;Humidity;BMP_temperature;BMP_pressure;BME280_temperature;BME280_humidity;BME280_pressure;Samples;Min_cycle;Max_cycle;Signal;HPM_P1;HPM_P2
2022/01/18 00:00:10;;;;;;;7.73;5.17;;;;;;;7.24;60.49;99500.69;5070226;28;20248;-56
2022/01/18 00:02:39;;;;;;;6.00;4.57;;;;;;;7.24;60.75;99526.25;5070470;28;20285;-56
2022/01/18 00:05:07;;;;;;;6.03;4.20;;;;;;;7.11;60.88;99519.91;5070387;28;20194;-57
2022/01/18 00:07:34;;;;;;;5.07;4.33;;;;;;;7.17;61.51;99532.00;5070069;28;20194;-57
2022/01/18 00:10:01;;;;;;;4.90;4.00;;;;;;;7.18;61.02;99526.94;5070090;28;20198;-56
2022/01/18 00:12:54;;;;;;;6.30;4.87;;;;;;;7.13;61.71;99528.47;5070388;28;20200;-57
2022/01/18 00:15:38;;;;;;;4.43;3.97;;;;;;;7.09;62.07;99532.63;5069961;28;20728;-56
2022/01/18 00:18:13;;;;;;;4.30;3.90;;;;;;;7.03;61.69;99531.59;5069942;28;20193;-56
2022/01/18 00:21:00;;;;;;;4.90;3.93;;;;;;;7.06;61.25;99539.31;5070060;28;20193;-57
2022/01/18 00:23:27;;;;;;;4.03;3.57;;;;;;;7.10;61.36;99543.72;5070219;28;20200;-57
2022/01/18 00:25:57;;;;;;;3.43;3.13;;;;;;;7.10;60.90;99538.59;5069861;28;20226;-57
2022/01/18 00:28:25;;;;;;;4.37;3.70;;;;;;;7.17;60.98;99535.41;5069871;28;20784;-57
2022/01/18 00:33:49;;;;;;;3.83;3.42;;;;;;;7.32;59.36;99556.31;5067700;28;20438;-57
2022/01/18 00:36:26;;;;;;;3.77;2.73;;;;;;;7.40;59.22;99553.97;5069919;28;20693;-56
2022/01/18 00:38:54;;;;;;;3.80;3.30;;;;;;;7.48;59.34;99578.97;5069808;28;20195;-56
2022/01/18 00:41:24;;;;;;;2.70;2.50;;;;;;;7.43;59.58;99574.53;5069979;28;20210;-56
2022/01/18 00:43:52;;;;;;;2.77;2.53;;;;;;;7.53;59.95;99584.19;5069866;28;20202;-57
2022/01/18 00:46:20;;;;;;;4.60;2.70;;;;;;;7.53;59.89;99595.28;5069588;28;20194;-57
2022/01/18 00:48:48;;;;;;;3.08;2.78;;;;;;;7.48;59.50;99594.28;5069364;28;20824;-57
2022/01/18 00:51:15;;;;;;;2.87;2.67;;;;;;;7.53;60.22;99591.84;5069990;28;20190;-57
2022/01/18 00:53:44;;;;;;;2.83;2.63;;;;;;;7.57;59.90;99604.81;5058298;28;20204;-57
2022/01/18 00:56:20;;;;;;;2.80;2.57;;;;;;;7.35;60.56;99581.97;5050093;28;20248;-57
2022/01/18 00:58:48;;;;;;;2.80;2.50;;;;;;;7.51;60.58;99589.28;5049996;28;20205;-57
2022/01/18 01:01:19;;;;;;;2.80;2.60;;;;;;;7.45;61.16;99565.19;5049695;28;20191;-57
2022/01/18 01:03:48;;;;;;;2.83;2.60;;;;;;;7.39;61.74;99572.72;5049717;28;20697;-57
2022/01/18 01:06:15;;;;;;;3.27;2.50;;;;;;;7.42;61.76;99583.88;5050206;28;20264;-57
2022/01/18 01:08:42;;;;;;;2.53;2.33;;;;;;;7.43;61.67;99577.09;5049574;28;20207;-57
2022/01/18 01:11:11;;;;;;;2.33;2.13;;;;;;;7.43;62.05;99574.53;5049812;28;20210;-57
2022/01/18 01:13:42;;;;;;;2.30;2.10;;;;;;;7.45;62.12;99593.31;5049699;28;20516;-57
2022/01/18 01:16:25;;;;;;;3.07;2.37;;;;;;;7.38;62.32;99582.06;5049913;28;20282;-57
2022/01/18 01:19:09;;;;;;;2.80;2.60;;;;;;;7.37;62.86;99570.09;5053091;28;20658;-57
2022/01/18 01:35:42;;;;;;;3.47;2.63;;;;;;;7.45;61.79;99558.41;5053004;28;20224;-57
2022/01/18 01:43:50;;;;;;;2.97;2.67;;;;;;;7.44;61.09;99612.06;5052910;28;20220;-57
2022/01/18 01:46:18;;;;;;;2.60;2.40;;;;;;;7.46;60.85;99641.97;5053040;28;20197;-57
2022/01/18 01:48:51;;;;;;;2.60;2.40;;;;;;;7.47;61.03;99655.59;5052761;28;20195;-57
2022/01/18 01:51:20;;;;;;;2.27;2.07;;;;;;;7.45;62.46;99668.31;5052800;28;20199;-57
2022/01/18 01:53:47;;;;;;;2.07;1.97;;;;;;;7.17;66.80;99692.97;5052682;28;20209;-56
2022/01/18 01:56:14;;;;;;;3.07;2.77;;;;;;;6.99;69.21;99675.34;5052345;28;20216;-56
2022/01/18 01:58:41;;;;;;;2.47;2.27;;;;;;;6.92;70.24;99704.06;5052459;28;20288;-56
2022/01/18 02:01:08;;;;;;;4.27;2.90;;;;;;;6.95;69.82;99706.72;5052589;28;20204;-57
2022/01/18 02:03:35;;;;;;;2.50;2.30;;;;;;;6.92;69.70;99699.78;5052600;28;20284;-57
2022/01/18 02:06:03;;;;;;;2.33;2.13;;;;;;;6.80;70.28;99712.16;5052338;28;20283;-57
2022/01/18 02:08:31;;;;;;;2.17;2.00;;;;;;;6.72;70.22;99700.81;5052290;28;20198;-57
2022/01/18 02:10:58;;;;;;;2.47;2.27;;;;;;;6.65;70.86;99698.84;5052285;28;20281;-56
2022/01/18 02:13:25;;;;;;;2.80;2.50;;;;;;;6.53;71.14;99709.53;5052117;28;20197;-57
2022/01/18 02:16:13;;;;;;;3.33;2.53;;;;;;;6.41;71.71;99701.44;5052041;28;20224;-59
2022/01/18 02:24:12;;;;;;;2.73;2.30;;;;;;;6.12;70.26;99725.00;5052373;28;20197;-56
2022/01/18 02:26:39;;;;;;;2.07;1.97;;;;;;;6.12;69.00;99762.41;5052014;28;20199;-57
2022/01/18 02:29:08;;;;;;;2.10;1.90;;;;;;;6.13;66.95;99748.81;5050732;28;20230;-57
2022/01/18 02:31:36;;;;;;;2.50;2.30;;;;;;;6.20;65.51;99772.09;5051901;28;20196;-57
2022/01/18 02:34:04;;;;;;;2.20;2.00;;;;;;;6.22;65.31;99777.22;5052151;28;20194;-56
2022/01/18 02:36:33;;;;;;;2.23;1.40;;;;;;;6.16;64.78;99798.28;5051915;28;20217;-56
2022/01/18 02:39:01;;;;;;;2.20;2.00;;;;;;;6.14;63.54;99804.13;5051428;28;20202;-56
2022/01/18 02:41:30;;;;;;;1.80;1.70;;;;;;;6.14;62.80;99816.88;5051525;28;20312;-56
2022/01/18 02:43:58;;;;;;;2.00;1.90;;;;;;;6.11;63.50;99820.19;5051549;28;20301;-56
2022/01/18 02:46:27;;;;;;;2.07;1.63;;;;;;;6.14;64.96;99815.22;5051789;28;20272;-57
2022/01/18 02:48:54;;;;;;;4.23;1.93;;;;;;;6.10;64.62;99820.16;5051735;28;20194;-56
2022/01/18 02:51:22;;;;;;;1.90;1.80;;;;;;;6.09;64.23;99829.47;5051699;28;20580;-56
2022/01/18 02:53:55;;;;;;;2.93;2.10;;;;;;;6.03;65.49;99823.25;5051229;28;20205;-56
2022/01/18 02:56:23;;;;;;;1.63;1.53;;;;;;;6.00;66.39;99824.00;5051329;28;21040;-56
2022/01/18 02:58:56;;;;;;;2.30;2.10;;;;;;;5.87;67.36;99830.31;5074598;28;20544;-60
2022/01/18 03:04:07;;;;;;;2.23;2.03;;;;;;;5.84;66.65;99865.84;5077219;28;20670;-60
2022/01/18 03:06:34;;;;;;;2.00;1.70;;;;;;;5.82;67.36;99879.34;5079767;28;20272;-60
2022/01/18 03:09:03;;;;;;;1.80;1.70;;;;;;;5.75;65.16;99887.53;5081008;28;20667;-59
2022/01/18 03:11:30;;;;;;;1.70;1.60;;;;;;;5.66;62.64;99905.00;5079841;28;20200;-59
2022/01/18 03:13:57;;;;;;;2.13;1.80;;;;;;;5.67;62.18;99916.94;5078562;28;20193;-59
2022/01/18 03:16:24;;;;;;;1.83;1.73;;;;;;;5.58;62.50;99919.06;5078555;28;20224;-59
2022/01/18 03:18:51;;;;;;;2.37;1.60;;;;;;;5.49;58.91;99928.91;5055823;28;20207;-59
2022/01/18 03:21:18;;;;;;;2.23;1.67;;;;;;;5.46;57.80;99937.28;5070976;28;20297;-59
2022/01/18 03:23:51;;;;;;;1.60;1.50;;;;;;;5.42;55.23;99942.16;5064898;28;20199;-59
2022/01/18 03:26:19;;;;;;;1.93;1.70;;;;;;;5.38;53.67;99945.41;5060366;28;20295;-59
2022/01/18 03:28:45;;;;;;;2.17;1.70;;;;;;;5.33;52.50;99953.69;5070643;28;20606;-60
2022/01/18 03:31:12;;;;;;;1.77;1.40;;;;;;;5.21;49.01;99949.75;5070921;28;20329;-59
2022/01/18 03:33:40;;;;;;;1.53;1.43;;;;;;;5.10;47.67;99951.81;5070320;28;20201;-59
2022/01/18 03:36:06;;;;;;;2.10;1.60;;;;;;;5.04;47.18;99955.75;5070984;28;20217;-59
2022/01/18 03:38:33;;;;;;;2.60;1.70;;;;;;;4.97;46.90;99966.47;5070432;28;20220;-59
2022/01/18 03:41:02;;;;;;;1.70;1.57;;;;;;;4.91;46.56;99977.25;5070278;28;20291;-59
2022/01/18 03:43:31;;;;;;;1.97;1.40;;;;;;;4.84;46.29;99976.88;5070445;28;20279;-59
2022/01/18 03:46:03;;;;;;;1.57;1.47;;;;;;;4.76;45.46;99979.06;5070630;28;20286;-59
2022/01/18 03:48:33;;;;;;;1.70;1.60;;;;;;;4.86;42.58;99985.47;5070733;28;20192;-59
2022/01/18 03:51:01;;;;;;;2.83;1.60;;;;;;;4.93;41.59;99990.03;5070552;28;20258;-59
2022/01/18 03:53:28;;;;;;;2.03;1.40;;;;;;;4.99;40.62;100001.41;5070538;28;20287;-59
2022/01/18 03:55:56;;;;;;;1.87;1.60;;;;;;;5.05;40.57;100000.81;5070653;28;20226;-58
2022/01/18 03:58:23;;;;;;;2.33;1.40;;;;;;;5.08;40.30;100004.34;5070610;28;20278;-57
2022/01/18 04:00:52;;;;;;;3.80;1.70;;;;;;;5.01;40.37;100004.00;5070651;28;20198;-57
2022/01/18 04:03:19;;;;;;;7.53;1.97;;;;;;;5.06;39.82;100025.44;5070455;28;20540;-57
2022/01/18 04:05:46;;;;;;;1.60;1.40;;;;;;;5.07;39.46;100045.03;5070493;28;20184;-57
2022/01/18 04:08:13;;;;;;;5.50;1.93;;;;;;;5.07;38.99;100056.09;5070486;28;20193;-57
2022/01/18 04:10:40;;;;;;;2.60;1.43;;;;;;;5.01;38.94;100047.28;5070379;28;20196;-57
2022/01/18 04:13:07;;;;;;;1.50;1.40;;;;;;;4.97;38.79;100060.69;5070146;28;20197;-57
2022/01/18 04:15:34;;;;;;;1.50;1.40;;;;;;;5.06;38.88;100067.06;5070352;28;20302;-57
2022/01/18 04:18:19;;;;;;;2.30;1.70;;;;;;;5.02;39.15;100071.97;5070240;28;20562;-57
2022/01/18 04:29:01;;;;;;;2.63;1.70;;;;;;;4.82;40.77;100116.81;5070116;28;20253;-59
2022/01/18 04:31:29;;;;;;;6.90;2.13;;;;;;;4.75;40.13;100122.44;5070284;28;20279;-59
2022/01/18 04:33:58;;;;;;;6.07;1.70;;;;;;;4.78;41.01;100119.16;5069919;28;20246;-59
2022/01/18 04:36:26;;;;;;;1.97;1.70;;;;;;;4.69;41.51;100125.56;5069925;28;20220;-59
2022/01/18 04:38:53;;;;;;;3.13;1.80;;;;;;;4.66;42.48;100132.16;5069842;28;20199;-60
2022/01/18 04:41:26;;;;;;;7.25;2.50;;;;;;;4.67;42.43;100129.66;5069441;28;20889;-59
2022/01/18 04:44:09;;;;;;;7.40;1.93;;;;;;;4.65;42.46;100135.47;5070069;28;20672;-59
2022/01/18 04:49:21;;;;;;;4.57;1.70;;;;;;;4.54;43.20;100140.03;5070181;28;20195;-59
2022/01/18 04:51:48;;;;;;;2.40;1.90;;;;;;;4.49;42.79;100144.03;5071023;28;20754;-59
2022/01/18 04:54:16;;;;;;;4.60;1.60;;;;;;;4.42;42.65;100143.66;5073727;28;20678;-59
2022/01/18 04:59:28;;;;;;;3.33;2.30;;;;;;;4.23;43.53;100157.06;5073574;28;20275;-59
2022/01/18 05:01:55;;;;;;;3.33;2.13;;;;;;;4.18;43.88;100177.19;5073574;28;20592;-59
2022/01/18 05:04:23;;;;;;;5.43;2.37;;;;;;;4.18;43.89;100182.28;5073206;28;20678;-59
2022/01/18 05:06:52;;;;;;;4.10;1.83;;;;;;;4.14;43.84;100179.50;5073398;28;20188;-58
2022/01/18 05:09:19;;;;;;;10.67;2.23;;;;;;;4.17;44.13;100193.22;5073505;28;20195;-59
2022/01/18 05:11:53;;;;;;;2.43;2.10;;;;;;;4.06;44.18;100196.91;5073142;28;20737;-58
2022/01/18 05:14:28;;;;;;;7.37;2.10;;;;;;;4.10;44.00;100203.88;5073325;28;20585;-58
2022/01/18 05:17:01;;;;;;;3.23;1.80;;;;;;;4.12;43.37;100219.25;5073220;28;20594;-59
2022/01/18 05:19:40;;;;;;;7.70;2.50;;;;;;;4.12;43.09;100219.25;5073290;28;20633;-58
2022/01/18 05:25:04;;;;;;;3.73;2.13;;;;;;;4.09;43.28;100216.53;5051109;28;20189;-59
2022/01/18 05:27:31;;;;;;;4.37;2.40;;;;;;;4.14;42.89;100233.78;5067460;28;20287;-59
2022/01/18 05:29:58;;;;;;;2.60;1.77;;;;;;;4.10;43.35;100231.84;5072778;28;20202;-60
2022/01/18 05:32:24;;;;;;;5.83;2.80;;;;;;;4.09;44.01;100229.25;5072957;28;20207;-60
2022/01/18 05:34:53;;;;;;;6.57;2.20;;;;;;;4.04;44.27;100243.34;5072897;28;20195;-57
2022/01/18 05:37:20;;;;;;;6.43;2.80;;;;;;;3.97;44.78;100251.47;5072913;28;20246;-60
2022/01/18 05:39:46;;;;;;;3.70;2.10;;;;;;;3.76;44.66;100217.25;5072596;28;20741;-59
2022/01/18 05:42:13;;;;;;;4.37;2.20;;;;;;;3.96;44.35;100260.75;5072488;28;20191;-59
2022/01/18 05:44:40;;;;;;;4.60;2.37;;;;;;;3.99;44.63;100260.03;5072046;28;20650;-60
2022/01/18 05:47:07;;;;;;;3.00;2.47;;;;;;;3.94;43.63;100254.72;5072151;28;20183;-60
2022/01/18 05:49:34;;;;;;;3.43;2.50;;;;;;;4.02;42.35;100268.72;5072396;28;20191;-60
2022/01/18 05:52:02;;;;;;;6.37;2.87;;;;;;;4.05;42.48;100268.88;5071906;28;20274;-60
2022/01/18 05:54:29;;;;;;;3.90;2.53;;;;;;;4.16;40.79;100283.06;5072116;28;20222;-57
2022/01/18 05:56:56;;;;;;;2.63;2.23;;;;;;;4.19;41.31;100279.78;5072403;28;20322;-57
2022/01/18 05:59:33;;;;;;;5.33;2.33;;;;;;;4.21;40.47;100278.19;5072180;28;20726;-56
2022/01/18 06:02:02;;;;;;;8.60;2.67;;;;;;;4.25;40.90;100284.34;5072100;28;20278;-56
2022/01/18 06:07:18;;;;;;;3.97;2.77;;;;;;;4.29;40.39;100296.41;5054550;28;20184;-56
2022/01/18 06:09:45;;;;;;;4.50;2.23;;;;;;;4.38;40.04;100300.34;5071638;28;20278;-58
2022/01/18 06:12:12;;;;;;;4.93;2.70;;;;;;;4.36;40.00;100313.75;5071640;28;20175;-56
2022/01/18 06:14:39;;;;;;;4.97;1.87;;;;;;;4.38;40.48;100314.72;5072412;28;20187;-57
2022/01/18 06:17:06;;;;;;;8.80;2.70;;;;;;;4.39;40.92;100308.84;5071384;28;20716;-57
2022/01/18 06:19:33;;;;;;;5.47;2.33;;;;;;;4.44;40.98;100313.38;5071861;28;20192;-56
2022/01/18 06:21:59;;;;;;;2.57;1.70;;;;;;;4.40;41.24;100296.19;5071554;28;20287;-57
2022/01/18 06:24:28;;;;;;;2.27;2.03;;;;;;;4.36;41.13;100289.22;5071292;28;20648;-56
2022/01/18 06:26:55;;;;;;;3.55;2.60;;;;;;;4.45;41.64;100284.59;5070528;28;20917;-57
2022/01/18 06:29:22;;;;;;;3.60;2.43;;;;;;;4.48;42.38;100294.03;5071488;28;20698;-57
2022/01/18 06:31:49;;;;;;;5.83;2.63;;;;;;;4.50;42.54;100292.47;5071918;28;20193;-57
2022/01/18 06:34:17;;;;;;;5.37;2.93;;;;;;;4.49;42.94;100283.09;5072067;28;20196;-57
2022/01/18 06:36:44;;;;;;;4.03;2.80;;;;;;;4.47;43.01;100287.22;5073234;28;20218;-58
2022/01/18 06:39:11;;;;;;;4.37;2.60;;;;;;;4.47;43.68;100293.19;5070862;28;20191;-57
2022/01/18 06:41:41;;;;;;;3.37;2.60;;;;;;;4.41;43.69;100289.44;5071364;28;20275;-58
2022/01/18 06:44:08;;;;;;;5.40;2.67;;;;;;;4.43;44.11;100287.84;5071474;28;20191;-57
2022/01/18 06:46:35;;;;;;;4.83;2.70;;;;;;;4.40;44.04;100297.84;5056975;28;20188;-56
2022/01/18 06:49:02;;;;;;;4.03;2.10;;;;;;;4.42;44.68;100299.69;5070600;28;20195;-56
2022/01/18 06:51:28;;;;;;;3.57;2.57;;;;;;;4.50;44.52;100297.56;5069118;28;20282;-57
2022/01/18 06:53:56;;;;;;;3.50;2.17;;;;;;;4.52;45.04;100291.75;5069041;28;20677;-57
2022/01/18 06:56:25;;;;;;;3.13;2.10;;;;;;;4.46;44.27;100321.09;5070456;28;20269;-58
2022/01/18 06:58:54;;;;;;;3.67;2.10;;;;;;;4.46;45.30;100318.53;5070869;28;20184;-57
2022/01/18 07:01:22;;;;;;;4.50;2.67;;;;;;;4.47;44.91;100302.50;5070629;28;20195;-57
2022/01/18 07:03:49;;;;;;;2.87;2.27;;;;;;;4.52;45.20;100326.50;5070861;28;20294;-57
2022/01/18 07:06:16;;;;;;;3.73;2.43;;;;;;;5.03;43.86;100329.22;5070758;28;20194;-57
2022/01/18 07:08:43;;;;;;;3.80;2.70;;;;;;;5.06;43.65;100323.41;5071214;28;20209;-57
2022/01/18 07:11:10;;;;;;;2.97;2.37;;;;;;;4.94;44.40;100316.03;5070846;28;21011;-57
2022/01/18 07:13:37;;;;;;;5.60;2.90;;;;;;;4.74;44.61;100315.00;5071129;28;20248;-57
2022/01/18 07:16:06;;;;;;;4.07;3.10;;;;;;;4.65;44.94;100331.44;5070534;28;20307;-57
2022/01/18 07:18:32;;;;;;;2.90;2.43;;;;;;;4.72;44.92;100331.00;5070458;28;20278;-56
2022/01/18 07:20:59;;;;;;;4.50;2.67;;;;;;;4.72;44.95;100359.00;5070543;28;20188;-56
2022/01/18 07:23:26;;;;;;;9.93;2.60;;;;;;;4.66;44.93;100345.94;5070598;28;20295;-56
2022/01/18 07:25:53;;;;;;;4.10;2.40;;;;;;;4.71;45.03;100339.41;5070705;28;20278;-57
2022/01/18 07:28:21;;;;;;;2.50;2.20;;;;;;;4.69;45.03;100344.44;5070037;28;20247;-57
2022/01/18 07:30:49;;;;;;;4.13;2.43;;;;;;;4.72;45.33;100367.47;5069505;28;20265;-56
2022/01/18 07:33:18;;;;;;;3.70;2.33;;;;;;;4.56;45.42;100353.88;5070308;28;20283;-56
2022/01/18 07:35:46;;;;;;;4.90;3.03;;;;;;;4.63;44.35;100361.03;5070394;28;20310;-56
2022/01/18 07:38:17;;;;;;;4.50;2.70;;;;;;;4.89;44.30;100398.91;5070493;28;20215;-56
2022/01/18 07:40:45;;;;;;;3.37;2.80;;;;;;;4.83;44.21;100383.34;5070276;28;20180;-57
2022/01/18 07:43:16;;;;;;;3.10;2.33;;;;;;;5.01;44.59;100389.38;5070297;28;20227;-56
2022/01/18 07:45:44;;;;;;;3.90;2.63;;;;;;;5.04;44.22;100393.75;5070220;28;20257;-57
2022/01/18 07:48:11;;;;;;;3.40;2.30;;;;;;;5.08;44.39;100399.09;5069852;28;20195;-57
2022/01/18 07:50:40;;;;;;;5.80;2.90;;;;;;;5.06;43.99;100415.09;5069435;28;20191;-56
2022/01/18 07:53:07;;;;;;;5.40;2.70;;;;;;;5.12;44.17;100416.28;5067979;28;20628;-57
2022/01/18 07:55:34;;;;;;;5.53;2.60;;;;;;;5.19;43.83;100415.81;5050038;28;20205;-57
2022/01/18 07:58:01;;;;;;;3.67;2.30;;;;;;;5.19;43.80;100408.16;5050167;28;20223;-56
2022/01/18 08:00:28;;;;;;;3.17;2.40;;;;;;;5.20;43.24;100409.94;5049903;28;20287;-56
2022/01/18 08:02:55;;;;;;;4.33;2.50;;;;;;;5.18;43.18;100408.09;5049998;28;20196;-56
2022/01/18 08:05:22;;;;;;;3.70;2.80;;;;;;;5.21;42.97;100421.00;5050017;28;20229;-56
2022/01/18 08:07:50;;;;;;;4.27;3.07;;;;;;;5.28;42.93;100428.16;5049461;28;20200;-57
2022/01/18 08:10:18;;;;;;;6.07;2.77;;;;;;;5.30;43.07;100431.69;5049676;28;20196;-57
2022/01/18 08:12:45;;;;;;;2.83;2.23;;;;;;;5.36;42.30;100431.97;5048147;28;20681;-57
2022/01/18 08:15:16;;;;;;;5.57;2.90;;;;;;;5.39;42.91;100429.56;5049856;28;20698;-57
2022/01/18 08:17:45;;;;;;;5.10;2.92;;;;;;;5.46;42.15;100439.31;5048414;28;20442;-56
2022/01/18 08:20:14;;;;;;;4.77;2.60;;;;;;;5.53;42.85;100438.81;5049865;28;20218;-57
2022/01/18 08:22:42;;;;;;;3.03;2.50;;;;;;;5.47;41.38;100433.41;5047780;28;20573;-56
2022/01/18 08:25:11;;;;;;;3.57;2.40;;;;;;;5.53;41.19;100412.44;5047570;28;20188;-57
2022/01/18 08:27:38;;;;;;;3.27;2.77;;;;;;;5.53;41.96;100431.16;5050271;28;20236;-56
2022/01/18 08:30:08;;;;;;;3.27;2.20;;;;;;;5.52;40.84;100439.59;5052089;28;20220;-57
2022/01/18 08:32:35;;;;;;;3.70;2.23;;;;;;;5.52;40.50;100461.69;5052014;28;20192;-57
2022/01/18 08:35:03;;;;;;;4.27;2.40;;;;;;;5.58;40.76;100472.16;5051780;28;20219;-57
2022/01/18 08:37:30;;;;;;;4.07;3.10;;;;;;;5.51;41.01;100447.19;5053121;28;20220;-57
2022/01/18 08:39:57;;;;;;;4.23;2.17;;;;;;;5.72;40.26;100458.47;5053893;28;20675;-57
2022/01/18 08:42:25;;;;;;;5.03;2.87;;;;;;;5.74;40.00;100464.53;5053421;28;20198;-57
2022/01/18 08:44:52;;;;;;;4.77;2.53;;;;;;;5.64;39.00;100473.38;5053733;28;20210;-57
2022/01/18 08:47:19;;;;;;;3.87;3.37;;;;;;;5.68;40.19;100472.75;5053749;28;20578;-57
2022/01/18 08:49:47;;;;;;;3.57;2.80;;;;;;;5.77;39.88;100485.94;5053358;28;20284;-57
2022/01/18 08:52:14;;;;;;;7.37;2.80;;;;;;;5.83;39.59;100467.53;5053462;28;20200;-56
2022/01/18 08:54:42;;;;;;;4.20;2.40;;;;;;;5.80;39.13;100478.44;5053170;28;20204;-56
2022/01/18 08:57:10;;;;;;;3.50;3.10;;;;;;;5.72;39.98;100450.81;5053256;28;20219;-58
2022/01/18 08:59:39;;;;;;;4.20;2.50;;;;;;;5.99;39.99;100472.63;5053180;28;20194;-57
2022/01/18 09:02:08;;;;;;;3.20;2.50;;;;;;;6.02;39.25;100470.22;5053153;28;20281;-57
2022/01/18 09:04:36;;;;;;;4.83;3.00;;;;;;;6.01;40.12;100481.25;5053315;28;20200;-57
2022/01/18 09:07:07;;;;;;;3.57;2.60;;;;;;;6.09;41.19;100479.06;5052972;28;20200;-57
2022/01/18 09:09:34;;;;;;;2.60;2.37;;;;;;;6.11;40.43;100483.44;5052926;28;20629;-57
2022/01/18 09:12:01;;;;;;;3.60;2.57;;;;;;;6.14;39.91;100470.84;5052789;28;20691;-57
2022/01/18 09:14:29;;;;;;;4.20;3.70;;;;;;;6.12;40.19;100472.44;5053012;28;20770;-57
2022/01/18 09:16:57;;;;;;;4.43;2.50;;;;;;;6.07;40.28;100468.78;5053072;28;20212;-58
2022/01/18 09:19:25;;;;;;;7.03;3.10;;;;;;;6.12;40.56;100471.56;5052887;28;20275;-58
2022/01/18 09:21:51;;;;;;;3.13;2.50;;;;;;;6.19;38.83;100469.38;5052776;28;20647;-57
2022/01/18 09:24:18;;;;;;;4.87;2.70;;;;;;;6.28;38.41;100471.53;5052504;28;20284;-57
2022/01/18 09:26:45;;;;;;;4.40;2.97;;;;;;;6.26;39.45;100462.94;5052865;28;20194;-57
2022/01/18 09:29:14;;;;;;;3.00;2.13;;;;;;;6.25;39.30;100479.91;5052711;28;20321;-57
2022/01/18 09:31:42;;;;;;;2.97;2.67;;;;;;;6.28;40.04;100466.41;5052992;28;20268;-57
2022/01/18 09:34:10;;;;;;;5.63;2.80;;;;;;;6.26;38.70;100468.03;5053272;28;20655;-57
2022/01/18 09:36:37;;;;;;;6.20;2.70;;;;;;;6.40;39.05;100472.97;5052720;28;20194;-58
2022/01/18 09:39:05;;;;;;;4.20;2.80;;;;;;;6.38;38.92;100449.06;5051949;28;20220;-57
2022/01/18 09:41:39;;;;;;;3.87;3.00;;;;;;;6.44;38.99;100469.78;5052382;28;20287;-57
2022/01/18 09:44:06;;;;;;;3.17;2.87;;;;;;;6.49;37.66;100473.44;5052274;28;20194;-57
2022/01/18 09:46:33;;;;;;;3.67;3.10;;;;;;;6.48;38.43;100461.44;5052297;28;20647;-57
2022/01/18 09:49:01;;;;;;;4.17;2.83;;;;;;;6.54;37.94;100473.63;5052406;28;20658;-57
2022/01/18 09:51:29;;;;;;;3.60;2.80;;;;;;;6.65;38.09;100461.41;5052483;28;20206;-57
2022/01/18 09:53:56;;;;;;;4.73;2.60;;;;;;;6.69;38.42;100464.16;5052280;28;20205;-57
2022/01/18 09:56:24;;;;;;;5.50;3.30;;;;;;;6.70;37.86;100454.81;5052045;28;20294;-57
2022/01/18 09:58:52;;;;;;;3.63;3.10;;;;;;;6.75;38.17;100444.03;5051992;28;20217;-57
2022/01/18 10:01:20;;;;;;;3.20;2.90;;;;;;;6.67;37.55;100449.56;5051969;28;20195;-57
2022/01/18 10:03:47;;;;;;;5.00;2.90;;;;;;;6.75;37.70;100448.25;5051927;28;20192;-57
2022/01/18 10:06:18;;;;;;;4.63;2.60;;;;;;;6.73;37.70;100444.75;5051578;28;20626;-56
2022/01/18 10:08:49;;;;;;;5.10;3.17;;;;;;;6.73;38.19;100430.28;5051851;28;20189;-57
2022/01/18 10:11:20;;;;;;;4.27;2.93;;;;;;;6.88;38.06;100422.47;5051734;28;20207;-57
2022/01/18 10:13:49;;;;;;;4.57;2.93;;;;;;;6.98;38.01;100411.84;5051654;28;20194;-57
2022/01/18 10:16:19;;;;;;;5.83;3.37;;;;;;;6.92;37.64;100417.53;5051436;28;20308;-56
2022/01/18 10:18:48;;;;;;;4.20;3.10;;;;;;;6.82;37.88;100424.72;5051186;28;20561;-56
2022/01/18 10:21:28;;;;;;;2.90;2.70;;;;;;;6.85;36.74;100417.22;5051260;28;20200;-58
2022/01/18 10:24:11;;;;;;;6.33;2.80;;;;;;;6.90;37.59;100406.41;5051557;28;20281;-58
2022/01/18 10:26:41;;;;;;;3.83;3.27;;;;;;;6.97;37.15;100402.44;5051230;28;20286;-57
2022/01/18 10:29:08;;;;;;;6.77;2.80;;;;;;;6.77;36.60;100400.66;5051024;28;20230;-57
2022/01/18 10:31:41;;;;;;;3.97;2.90;;;;;;;6.82;37.14;100404.28;5050966;28;20442;-58
2022/01/18 10:34:13;;;;;;;3.90;3.20;;;;;;;6.89;36.11;100402.13;5051246;28;20250;-57
2022/01/18 10:36:53;;;;;;;3.33;2.97;;;;;;;6.92;36.36;100401.38;5051263;28;20582;-57
2022/01/18 10:39:26;;;;;;;5.27;3.27;;;;;;;6.84;37.12;100379.72;5053958;28;20223;-57
2022/01/18 10:41:53;;;;;;;4.10;2.97;;;;;;;6.82;36.87;100379.63;5071287;28;20219;-57
2022/01/18 10:44:22;;;;;;;5.23;3.63;;;;;;;7.00;37.43;100384.72;5070737;28;20212;-56
2022/01/18 10:46:52;;;;;;;4.60;3.10;;;;;;;7.10;36.93;100389.41;5071158;28;20206;-57
2022/01/18 10:49:35;;;;;;;5.37;2.60;;;;;;;7.12;37.04;100385.22;5055573;28;20712;-56
2022/01/18 10:52:06;;;;;;;3.73;3.10;;;;;;;6.90;37.59;100347.63;5071372;28;20663;-56
2022/01/18 10:54:38;;;;;;;4.03;2.90;;;;;;;7.17;36.50;100380.34;5070926;28;20709;-56
2022/01/18 10:57:07;;;;;;;4.37;2.77;;;;;;;7.05;35.82;100386.66;5071351;28;20209;-57
2022/01/18 10:59:37;;;;;;;2.90;2.60;;;;;;;7.13;36.05;100387.00;5071287;28;20682;-57
2022/01/18 11:02:13;;;;;;;3.47;2.60;;;;;;;7.18;35.39;100377.84;5061703;28;20206;-57
2022/01/18 11:04:40;;;;;;;2.87;2.53;;;;;;;7.13;35.41;100374.22;5051340;28;20199;-57
2022/01/18 11:07:07;;;;;;;3.60;2.97;;;;;;;7.13;35.77;100377.66;5051197;28;20202;-57
2022/01/18 11:09:36;;;;;;;2.83;2.57;;;;;;;7.20;36.34;100386.44;5066046;28;20205;-57
2022/01/18 11:12:05;;;;;;;2.97;2.60;;;;;;;7.13;36.31;100372.53;5069754;28;20756;-56
2022/01/18 11:14:32;;;;;;;3.80;3.03;;;;;;;7.26;36.49;100386.72;5070413;28;20202;-57
2022/01/18 11:17:02;;;;;;;5.57;3.00;;;;;;;7.28;36.58;100377.41;5070330;28;20649;-57
2022/01/18 11:19:35;;;;;;;3.37;2.60;;;;;;;7.31;36.67;100376.66;5068045;28;20594;-57
2022/01/18 11:22:04;;;;;;;4.23;2.93;;;;;;;7.25;37.48;100376.44;5070530;28;20183;-57
2022/01/18 11:24:31;;;;;;;4.60;2.63;;;;;;;7.26;36.52;100378.16;5070158;28;20203;-58
2022/01/18 11:27:01;;;;;;;3.50;3.20;;;;;;;7.23;36.00;100378.03;5070084;28;20273;-57
2022/01/18 11:29:29;;;;;;;3.20;2.90;;;;;;;7.07;36.28;100345.81;5067423;28;21040;-57
2022/01/18 11:31:57;;;;;;;5.40;2.80;;;;;;;7.35;35.77;100389.66;5069929;28;20184;-57
2022/01/18 11:34:36;;;;;;;6.50;3.13;;;;;;;7.42;36.42;100395.91;5069978;28;20280;-57
2022/01/18 11:37:12;;;;;;;4.50;2.67;;;;;;;7.34;36.06;100387.91;5069312;28;20657;-57
2022/01/18 11:39:39;;;;;;;3.73;3.10;;;;;;;7.38;36.42;100387.25;5067812;28;20232;-57
2022/01/18 11:42:09;;;;;;;3.93;2.80;;;;;;;7.41;36.31;100382.28;5069826;28;20753;-57
2022/01/18 11:44:36;;;;;;;4.80;3.53;;;;;;;7.37;36.65;100387.16;5067523;28;20663;-56
2022/01/18 11:47:05;;;;;;;2.50;2.30;;;;;;;7.38;35.98;100382.13;5069901;28;20248;-57
2022/01/18 11:49:33;;;;;;;3.53;3.10;;;;;;;7.29;35.33;100388.53;5069013;28;20190;-57
2022/01/18 11:52:05;;;;;;;3.03;2.73;;;;;;;7.39;35.86;100383.88;5069474;28;21628;-57
2022/01/18 11:54:55;;;;;;;4.63;3.40;;;;;;;7.12;36.89;100345.22;5070183;28;20297;-57
2022/01/18 11:57:36;;;;;;;4.57;3.00;;;;;;;7.27;36.78;100398.69;5070780;28;20204;-56
2022/01/18 12:00:24;;;;;;;4.60;3.17;;;;;;;7.29;36.48;100383.41;5068773;28;20273;-58
2022/01/18 12:02:56;;;;;;;3.97;2.70;;;;;;;7.33;37.16;100370.84;5078457;28;20186;-57
2022/01/18 12:05:25;;;;;;;6.57;3.50;;;;;;;7.37;36.52;100390.59;5071089;28;20561;-57
2022/01/18 12:08:01;;;;;;;7.23;4.03;;;;;;;7.43;36.87;100395.09;5068999;28;20187;-57
2022/01/18 12:10:45;;;;;;;3.73;3.30;;;;;;;7.28;36.58;100379.97;5067846;28;20193;-57
2022/01/18 12:13:28;;;;;;;4.10;3.33;;;;;;;7.30;37.63;100382.63;5069186;28;20192;-57
2022/01/18 12:15:57;;;;;;;6.93;4.45;;;;;;;7.39;37.18;100378.75;5068332;28;20516;-56
2022/01/18 12:18:26;;;;;;;3.57;3.23;;;;;;;7.37;37.68;100382.94;5067259;28;20228;-57
2022/01/18 12:20:55;;;;;;;5.97;3.50;;;;;;;7.55;36.88;100385.41;5068568;28;20692;-57
2022/01/18 12:23:25;;;;;;;5.07;3.37;;;;;;;7.56;36.90;100377.78;5069418;28;20198;-56
2022/01/18 12:25:58;;;;;;;3.03;2.70;;;;;;;7.38;37.00;100356.56;5069887;28;20277;-57
2022/01/18 12:28:57;;;;;;;4.00;3.50;;;;;;;7.52;37.84;100378.50;5069248;28;20230;-57
2022/01/18 12:35:00;;;;;;;3.13;2.60;;;;;;;7.39;37.25;100388.97;5069553;28;20618;-56
2022/01/18 12:37:38;;;;;;;4.27;2.90;;;;;;;7.45;36.44;100371.34;5069828;28;20193;-56
2022/01/18 12:40:22;;;;;;;6.27;3.07;;;;;;;7.54;36.43;100381.09;5069566;28;20193;-57